createdAt,value
2022-09-09T00:00:48.601Z,1004.25
2022-09-09T00:01:48.563Z,1004.31
2022-09-09T00:02:48.648Z,1004.32
2022-09-09T00:03:48.555Z,1004.38
2022-09-09T00:04:48.510Z,1004.40
2022-09-09T00:05:48.545Z,1004.38
2022-09-09T00:06:48.490Z,1004.39
2022-09-09T00:07:48.516Z,1004.40
2022-09-09T00:08:48.477Z,1004.41
2022-09-09T00:09:48.494Z,1004.44
2022-09-09T00:10:48.465Z,1004.41
2022-09-09T00:11:48.444Z,1004.41
2022-09-09T00:12:48.404Z,1004.43
2022-09-09T00:13:48.390Z,1004.39
2022-09-09T00:14:48.398Z,1004.37
2022-09-09T00:15:48.492Z,1004.37
2022-09-09T00:16:48.384Z,1004.37
2022-09-09T00:17:48.354Z,1004.38
2022-09-09T00:18:48.349Z,1004.38
2022-09-09T00:19:48.350Z,1004.40
2022-09-09T00:20:48.389Z,1004.38
2022-09-09T00:21:48.361Z,1004.36
2022-09-09T00:22:48.320Z,1004.34
2022-09-09T00:23:48.315Z,1004.36
2022-09-09T00:24:48.319Z,1004.28
2022-09-09T00:25:52.249Z,1004.31
2022-09-09T00:26:48.265Z,1004.27
2022-09-09T00:27:48.277Z,1004.26
2022-09-09T00:28:48.239Z,1004.26
2022-09-09T00:29:48.239Z,1004.22
2022-09-09T00:30:48.263Z,1004.22
2022-09-09T00:31:48.221Z,1004.22
2022-09-09T00:32:48.212Z,1004.20
2022-09-09T00:33:48.189Z,1004.16
2022-09-09T00:34:48.186Z,1004.18
2022-09-09T00:35:48.233Z,1004.23
2022-09-09T00:36:48.161Z,1004.21
2022-09-09T00:37:48.156Z,1004.15
2022-09-09T00:38:48.120Z,1004.19
2022-09-09T00:39:48.166Z,1004.19
2022-09-09T00:40:48.169Z,1004.17
2022-09-09T00:41:48.114Z,1004.21
2022-09-09T00:42:48.235Z,1004.16
2022-09-09T00:43:48.070Z,1004.14
2022-09-09T00:44:48.046Z,1004.21
2022-09-09T00:45:48.158Z,1004.16
2022-09-09T00:46:48.056Z,1004.15
2022-09-09T00:47:48.032Z,1004.14
2022-09-09T00:48:48.023Z,1004.16
2022-09-09T00:49:48.023Z,1004.19
2022-09-09T00:50:48.041Z,1004.18
2022-09-09T00:51:48.016Z,1004.17
2022-09-09T00:52:47.967Z,1004.20
2022-09-09T00:53:47.973Z,1004.21
2022-09-09T00:54:47.966Z,1004.24
2022-09-09T00:55:48.013Z,1004.23
2022-09-09T00:56:47.944Z,1004.23
2022-09-09T00:57:47.947Z,1004.23
2022-09-09T00:58:47.929Z,1004.26
2022-09-09T00:59:47.915Z,1004.23
2022-09-09T01:00:47.948Z,1004.21
2022-09-09T01:01:47.943Z,1004.21
2022-09-09T01:02:47.906Z,1004.23
2022-09-09T01:03:47.851Z,1004.27
2022-09-09T01:04:47.864Z,1004.25
2022-09-09T01:05:47.895Z,1004.24
2022-09-09T01:06:47.857Z,1004.27
2022-09-09T01:07:47.807Z,1004.30
2022-09-09T01:08:47.820Z,1004.32
2022-09-09T01:09:47.794Z,1004.33
2022-09-09T01:10:47.819Z,1004.35
2022-09-09T01:11:47.804Z,1004.34
2022-09-09T01:12:47.755Z,1004.33
2022-09-09T01:13:47.738Z,1004.32
2022-09-09T01:14:47.729Z,1004.33
2022-09-09T01:15:47.789Z,1004.35
2022-09-09T01:16:47.760Z,1004.36
2022-09-09T01:17:47.726Z,1004.40
2022-09-09T01:18:47.722Z,1004.38
2022-09-09T01:19:47.684Z,1004.41
2022-09-09T01:20:47.735Z,1004.42
2022-09-09T01:21:47.679Z,1004.43
2022-09-09T01:22:47.665Z,1004.42
2022-09-09T01:23:47.627Z,1004.43
2022-09-09T01:24:47.647Z,1004.47
2022-09-09T01:25:47.670Z,1004.51
2022-09-09T01:26:47.627Z,1004.47
2022-09-09T01:27:47.610Z,1004.48
2022-09-09T01:28:47.605Z,1004.47
2022-09-09T01:29:47.577Z,1004.51
2022-09-09T01:30:47.757Z,1004.48
2022-09-09T01:31:47.558Z,1004.50
2022-09-09T01:32:47.564Z,1004.49
2022-09-09T01:33:47.541Z,1004.48
2022-09-09T01:34:47.526Z,1004.54
2022-09-09T01:35:47.541Z,1004.47
2022-09-09T01:36:47.499Z,1004.45
2022-09-09T01:37:47.495Z,1004.46
2022-09-09T01:38:47.471Z,1004.45
2022-09-09T01:39:47.531Z,1004.43
2022-09-09T01:40:47.506Z,1004.39
2022-09-09T01:41:47.448Z,1004.38
2022-09-09T01:42:47.441Z,1004.40
2022-09-09T01:43:47.415Z,1004.39
2022-09-09T01:44:47.409Z,1004.37
2022-09-09T01:45:47.477Z,1004.40
2022-09-09T01:46:47.416Z,1004.35
2022-09-09T01:47:47.377Z,1004.37
2022-09-09T01:48:47.384Z,1004.38
2022-09-09T01:49:47.368Z,1004.39
2022-09-09T01:50:47.398Z,1004.35
2022-09-09T01:51:47.307Z,1004.36
2022-09-09T01:52:47.335Z,1004.35
2022-09-09T01:53:47.318Z,1004.37
2022-09-09T01:54:47.292Z,1004.43
2022-09-09T01:55:47.323Z,1004.41
2022-09-09T01:56:47.289Z,1004.44
2022-09-09T01:57:47.285Z,1004.44
2022-09-09T01:58:47.285Z,1004.46
2022-09-09T01:59:47.251Z,1004.45
2022-09-09T02:00:47.336Z,1004.43
2022-09-09T02:01:47.222Z,1004.41
2022-09-09T02:02:47.293Z,1004.39
2022-09-09T02:03:47.183Z,1004.36
2022-09-09T02:04:47.193Z,1004.38
2022-09-09T02:05:47.222Z,1004.37
2022-09-09T02:06:47.178Z,1004.35
2022-09-09T02:07:47.146Z,1004.37
2022-09-09T02:08:47.159Z,1004.36
2022-09-09T02:09:47.139Z,1004.45
2022-09-09T02:10:47.167Z,1004.42
2022-09-09T02:11:47.129Z,1004.48
2022-09-09T02:12:47.091Z,1004.45
2022-09-09T02:13:47.081Z,1004.47
2022-09-09T02:14:47.059Z,1004.48
2022-09-09T02:15:47.096Z,1004.48
2022-09-09T02:16:47.113Z,1004.52
2022-09-09T02:17:47.044Z,1004.51
2022-09-09T02:18:47.033Z,1004.52
2022-09-09T02:19:47.051Z,1004.56
2022-09-09T02:20:47.060Z,1004.49
2022-09-09T02:21:47.006Z,1004.51
2022-09-09T02:22:47.039Z,1004.51
2022-09-09T02:23:46.966Z,1004.52
2022-09-09T02:24:46.984Z,1004.53
2022-09-09T02:25:47.018Z,1004.51
2022-09-09T02:26:46.985Z,1004.55
2022-09-09T02:27:46.943Z,1004.51
2022-09-09T02:28:46.925Z,1004.51
2022-09-09T02:29:46.935Z,1004.51
2022-09-09T02:30:46.980Z,1004.54
2022-09-09T02:31:46.899Z,1004.51
2022-09-09T02:32:46.883Z,1004.47
2022-09-09T02:33:46.873Z,1004.45
2022-09-09T02:34:46.932Z,1004.44
2022-09-09T02:35:46.846Z,1004.46
2022-09-09T02:36:46.855Z,1004.48
2022-09-09T02:37:46.820Z,1004.48
2022-09-09T02:38:46.810Z,1004.48
2022-09-09T02:39:46.824Z,1004.44
2022-09-09T02:40:46.836Z,1004.41
2022-09-09T02:41:46.766Z,1004.41
2022-09-09T02:42:46.744Z,1004.43
2022-09-09T02:43:46.735Z,1004.43
2022-09-09T02:44:46.753Z,1004.44
2022-09-09T02:45:46.860Z,1004.43
2022-09-09T02:46:46.722Z,1004.45
2022-09-09T02:47:46.709Z,1004.44
2022-09-09T02:48:46.705Z,1004.43
2022-09-09T02:49:46.710Z,1004.42
2022-09-09T02:50:46.719Z,1004.48
2022-09-09T02:51:46.674Z,1004.51
2022-09-09T02:52:46.656Z,1004.58
2022-09-09T02:53:46.648Z,1004.51
2022-09-09T02:54:46.648Z,1004.52
2022-09-09T02:55:46.683Z,1004.57
2022-09-09T02:56:46.618Z,1004.53
2022-09-09T02:57:46.604Z,1004.55
2022-09-09T02:58:46.616Z,1004.51
2022-09-09T02:59:46.579Z,1004.54
2022-09-09T03:00:46.632Z,1004.53
2022-09-09T03:01:46.550Z,1004.58
2022-09-09T03:02:46.583Z,1004.54
2022-09-09T03:03:46.545Z,1004.61
2022-09-09T03:04:46.503Z,1004.62
2022-09-09T03:05:46.548Z,1004.63
2022-09-09T03:06:46.505Z,1004.62
2022-09-09T03:07:46.487Z,1004.58
2022-09-09T03:08:49.363Z,1004.61
2022-09-09T03:09:46.473Z,1004.59
2022-09-09T03:10:46.494Z,1004.63
2022-09-09T03:11:46.415Z,1004.66
2022-09-09T03:12:46.412Z,1004.68
2022-09-09T03:13:46.395Z,1004.68
2022-09-09T03:14:46.452Z,1004.66
2022-09-09T03:15:46.431Z,1004.65
2022-09-09T03:16:46.422Z,1004.66
2022-09-09T03:17:46.396Z,1004.69
2022-09-09T03:18:46.351Z,1004.70
2022-09-09T03:19:46.375Z,1004.72
2022-09-09T03:20:46.396Z,1004.72
2022-09-09T03:21:46.335Z,1004.69
2022-09-09T03:22:46.327Z,1004.72
2022-09-09T03:23:46.298Z,1004.65
2022-09-09T03:24:46.299Z,1004.67
2022-09-09T03:25:46.321Z,1004.69
2022-09-09T03:26:46.316Z,1004.73
2022-09-09T03:27:46.250Z,1004.69
2022-09-09T03:28:46.252Z,1004.67
2022-09-09T03:29:46.232Z,1004.67
2022-09-09T03:30:46.275Z,1004.72
2022-09-09T03:31:46.353Z,1004.71
2022-09-09T03:32:49.002Z,1004.68
2022-09-09T03:33:46.215Z,1004.73
2022-09-09T03:34:46.171Z,1004.73
2022-09-09T03:35:46.200Z,1004.72
2022-09-09T03:36:46.158Z,1004.71
2022-09-09T03:37:46.136Z,1004.71
2022-09-09T03:38:46.137Z,1004.69
2022-09-09T03:39:46.145Z,1004.69
2022-09-09T03:40:46.136Z,1004.70
2022-09-09T03:41:46.109Z,1004.68
2022-09-09T03:42:46.069Z,1004.64
2022-09-09T03:43:46.060Z,1004.63
2022-09-09T03:44:46.066Z,1004.61
2022-09-09T03:45:46.096Z,1004.65
2022-09-09T03:46:46.045Z,1004.62
2022-09-09T03:47:46.038Z,1004.64
2022-09-09T03:48:46.008Z,1004.65
2022-09-09T03:49:46.018Z,1004.60
2022-09-09T03:50:46.060Z,1004.62
2022-09-09T03:51:45.973Z,1004.61
2022-09-09T03:52:45.964Z,1004.58
2022-09-09T03:53:45.949Z,1004.58
2022-09-09T03:54:45.966Z,1004.62
2022-09-09T03:55:45.983Z,1004.64
2022-09-09T03:56:45.953Z,1004.57
2022-09-09T03:57:45.925Z,1004.57
2022-09-09T03:58:45.890Z,1004.63
2022-09-09T03:59:45.912Z,1004.60
2022-09-09T04:00:46.102Z,1004.63
2022-09-09T04:01:45.923Z,1004.66
2022-09-09T04:02:45.859Z,1004.65
2022-09-09T04:03:45.836Z,1004.67
2022-09-09T04:04:45.835Z,1004.65
2022-09-09T04:05:45.855Z,1004.73
2022-09-09T04:06:45.822Z,1004.74
2022-09-09T04:07:45.802Z,1004.73
2022-09-09T04:08:45.793Z,1004.72
2022-09-09T04:09:45.786Z,1004.72
2022-09-09T04:10:45.805Z,1004.72
2022-09-09T04:11:45.745Z,1004.71
2022-09-09T04:12:48.988Z,1004.68
2022-09-09T04:13:45.726Z,1004.75
2022-09-09T04:14:45.734Z,1004.73
2022-09-09T04:15:45.746Z,1004.74
2022-09-09T04:16:45.941Z,1004.75
2022-09-09T04:17:45.696Z,1004.75
2022-09-09T04:18:45.711Z,1004.79
2022-09-09T04:19:45.671Z,1004.77
2022-09-09T04:20:45.688Z,1004.78
2022-09-09T04:21:45.640Z,1004.77
2022-09-09T04:22:45.649Z,1004.79
2022-09-09T04:23:45.633Z,1004.78
2022-09-09T04:24:48.775Z,1004.82
2022-09-09T04:25:45.656Z,1004.84
2022-09-09T04:26:45.578Z,1004.86
2022-09-09T04:27:45.586Z,1004.84
2022-09-09T04:28:45.555Z,1004.88
2022-09-09T04:29:45.558Z,1004.88
2022-09-09T04:30:45.586Z,1004.89
2022-09-09T04:31:45.563Z,1004.88
2022-09-09T04:32:45.520Z,1004.85
2022-09-09T04:33:45.504Z,1004.88
2022-09-09T04:34:45.504Z,1004.90
2022-09-09T04:35:45.529Z,1004.83
2022-09-09T04:36:45.473Z,1004.90
2022-09-09T04:37:45.468Z,1004.92
2022-09-09T04:38:45.477Z,1004.91
2022-09-09T04:39:45.474Z,1004.92
2022-09-09T04:40:45.447Z,1004.91
2022-09-09T04:41:45.385Z,1004.94
2022-09-09T04:42:45.389Z,1004.93
2022-09-09T04:43:45.407Z,1004.88
2022-09-09T04:44:45.385Z,1004.93
2022-09-09T04:45:45.425Z,1004.94
2022-09-09T04:46:45.355Z,1004.93
2022-09-09T04:47:45.373Z,1004.93
2022-09-09T04:48:45.349Z,1004.95
2022-09-09T04:49:45.318Z,1004.99
2022-09-09T04:50:45.335Z,1004.98
2022-09-09T04:51:45.287Z,1005.01
2022-09-09T04:52:45.295Z,1004.96
2022-09-09T04:53:45.290Z,1005.00
2022-09-09T04:54:45.289Z,1005.00
2022-09-09T04:55:45.300Z,1005.00
2022-09-09T04:56:45.240Z,1005.01
2022-09-09T04:57:45.230Z,1004.99
2022-09-09T04:58:45.210Z,1005.05
2022-09-09T04:59:45.233Z,1005.02
2022-09-09T05:00:45.306Z,1004.98
2022-09-09T05:01:45.259Z,1004.96
2022-09-09T05:02:45.198Z,1004.95
2022-09-09T05:03:45.157Z,1004.93
2022-09-09T05:04:45.183Z,1004.95
2022-09-09T05:05:45.167Z,1004.94
2022-09-09T05:06:45.146Z,1004.99
2022-09-09T05:07:45.120Z,1004.96
2022-09-09T05:08:45.120Z,1004.99
2022-09-09T05:09:45.129Z,1004.94
2022-09-09T05:10:45.059Z,1004.98
2022-09-09T05:11:45.047Z,1005.01
2022-09-09T05:12:45.064Z,1005.02
2022-09-09T05:13:45.071Z,1005.00
2022-09-09T05:14:45.035Z,1004.97
2022-09-09T05:15:45.069Z,1004.96
2022-09-09T05:16:45.089Z,1004.99
2022-09-09T05:17:44.998Z,1004.97
2022-09-09T05:18:45.013Z,1004.99
2022-09-09T05:19:44.984Z,1004.98
2022-09-09T05:20:44.998Z,1004.93
2022-09-09T05:21:44.951Z,1004.94
2022-09-09T05:22:44.964Z,1004.93
2022-09-09T05:23:44.959Z,1004.94
2022-09-09T05:24:44.938Z,1004.94
2022-09-09T05:25:44.977Z,1004.92
2022-09-09T05:26:44.896Z,1004.85
2022-09-09T05:27:44.914Z,1004.91
2022-09-09T05:28:44.872Z,1004.85
2022-09-09T05:29:44.883Z,1004.90
2022-09-09T05:30:44.903Z,1004.91
2022-09-09T05:31:44.883Z,1004.87
2022-09-09T05:32:44.839Z,1004.88
2022-09-09T05:33:44.845Z,1004.89
2022-09-09T05:34:44.833Z,1004.91
2022-09-09T05:35:44.847Z,1004.92
2022-09-09T05:36:44.818Z,1004.94
2022-09-09T05:37:44.784Z,1004.94
2022-09-09T05:38:44.746Z,1005.00
2022-09-09T05:39:44.779Z,1004.94
2022-09-09T05:40:44.772Z,1004.95
2022-09-09T05:41:44.735Z,1004.93
2022-09-09T05:42:44.723Z,1004.95
2022-09-09T05:43:44.700Z,1004.94
2022-09-09T05:44:44.687Z,1004.90
2022-09-09T05:45:44.729Z,1004.92
2022-09-09T05:46:44.743Z,1004.92
2022-09-09T05:47:44.664Z,1004.96
2022-09-09T05:48:44.651Z,1004.94
2022-09-09T05:49:44.630Z,1004.92
2022-09-09T05:50:44.654Z,1004.89
2022-09-09T05:51:44.633Z,1004.90
2022-09-09T05:52:44.611Z,1004.88
2022-09-09T05:53:44.589Z,1004.90
2022-09-09T05:54:44.584Z,1004.94
2022-09-09T05:55:44.627Z,1004.97
2022-09-09T05:56:46.174Z,1005.02
2022-09-09T05:57:44.579Z,1005.01
2022-09-09T05:58:44.536Z,1005.04
2022-09-09T05:59:44.537Z,1005.01
2022-09-09T06:00:44.583Z,1005.07
2022-09-09T06:01:44.587Z,1005.07
2022-09-09T06:02:44.610Z,1005.09
2022-09-09T06:03:44.499Z,1005.02
2022-09-09T06:04:44.469Z,1005.04
2022-09-09T06:05:44.514Z,1005.08
2022-09-09T06:06:44.465Z,1005.04
2022-09-09T06:07:44.443Z,1005.10
2022-09-09T06:08:44.411Z,1005.06
2022-09-09T06:09:44.415Z,1005.09
2022-09-09T06:10:44.439Z,1005.14
2022-09-09T06:11:44.386Z,1005.12
2022-09-09T06:12:44.364Z,1005.12
2022-09-09T06:13:44.377Z,1005.15
2022-09-09T06:14:46.415Z,1005.18
2022-09-09T06:15:44.402Z,1005.18
2022-09-09T06:16:44.395Z,1005.19
2022-09-09T06:17:44.339Z,1005.11
2022-09-09T06:18:44.303Z,1005.15
2022-09-09T06:19:44.305Z,1005.15
2022-09-09T06:20:44.324Z,1005.16
2022-09-09T06:21:44.264Z,1005.14
2022-09-09T06:22:44.276Z,1005.14
2022-09-09T06:23:44.252Z,1005.16
2022-09-09T06:24:44.254Z,1005.16
2022-09-09T06:25:44.254Z,1005.20
2022-09-09T06:26:44.244Z,1005.23
2022-09-09T06:27:44.211Z,1005.19
2022-09-09T06:28:44.203Z,1005.18
2022-09-09T06:29:44.199Z,1005.15
2022-09-09T06:30:44.219Z,1005.19
2022-09-09T06:31:44.256Z,1005.15
2022-09-09T06:32:44.158Z,1005.25
2022-09-09T06:33:44.163Z,1005.17
2022-09-09T06:34:44.124Z,1005.23
2022-09-09T06:35:44.143Z,1005.18
2022-09-09T06:36:44.073Z,1005.20
2022-09-09T06:37:44.092Z,1005.16
2022-09-09T06:38:44.096Z,1005.14
2022-09-09T06:39:44.121Z,1005.17
2022-09-09T06:40:44.109Z,1005.15
2022-09-09T06:41:44.132Z,1005.17
2022-09-09T06:42:44.049Z,1005.13
2022-09-09T06:43:44.035Z,1005.12
2022-09-09T06:44:44.006Z,1005.14
2022-09-09T06:45:44.071Z,1005.18
2022-09-09T06:46:44.037Z,1005.16
2022-09-09T06:47:44.015Z,1005.18
2022-09-09T06:48:43.982Z,1005.22
2022-09-09T06:49:47.750Z,1005.24
2022-09-09T06:50:43.964Z,1005.20
2022-09-09T06:51:44.227Z,1005.26
2022-09-09T06:52:43.933Z,1005.24
2022-09-09T06:53:43.912Z,1005.23
2022-09-09T06:54:43.932Z,1005.20
2022-09-09T06:55:43.902Z,1005.19
2022-09-09T06:56:43.919Z,1005.25
2022-09-09T06:57:43.872Z,1005.19
2022-09-09T06:58:43.844Z,1005.27
2022-09-09T06:59:43.858Z,1005.27
2022-09-09T07:00:43.875Z,1005.25
2022-09-09T07:01:43.904Z,1005.24
2022-09-09T07:02:43.834Z,1005.27
2022-09-09T07:03:43.803Z,1005.26
2022-09-09T07:04:43.791Z,1005.25
2022-09-09T07:05:43.772Z,1005.24
2022-09-09T07:06:43.798Z,1005.23
2022-09-09T07:07:43.754Z,1005.26
2022-09-09T07:08:55.319Z,1005.27
2022-09-09T07:09:44.743Z,1005.28
2022-09-09T07:10:43.729Z,1005.23
2022-09-09T07:11:43.770Z,1005.21
2022-09-09T07:12:43.715Z,1005.21
2022-09-09T07:13:43.699Z,1005.19
2022-09-09T07:14:43.683Z,1005.22
2022-09-09T07:15:43.726Z,1005.20
2022-09-09T07:16:43.699Z,1005.21
2022-09-09T07:17:43.651Z,1005.21
2022-09-09T07:18:43.644Z,1005.22
2022-09-09T07:19:43.649Z,1005.25
2022-09-09T07:20:43.628Z,1005.22
2022-09-09T07:21:43.640Z,1005.20
2022-09-09T07:22:43.610Z,1005.20
2022-09-09T07:23:43.585Z,1005.25
2022-09-09T07:24:43.609Z,1005.26
2022-09-09T07:25:43.560Z,1005.23
2022-09-09T07:26:43.595Z,1005.27
2022-09-09T07:27:43.542Z,1005.24
2022-09-09T07:28:43.547Z,1005.25
2022-09-09T07:29:43.530Z,1005.23
2022-09-09T07:30:43.525Z,1005.25
2022-09-09T07:31:43.597Z,1005.25
2022-09-09T07:32:43.517Z,1005.26
2022-09-09T07:33:43.485Z,1005.25
2022-09-09T07:34:43.455Z,1005.31
2022-09-09T07:35:43.470Z,1005.29
2022-09-09T07:36:43.460Z,1005.32
2022-09-09T07:37:45.746Z,1005.34
2022-09-09T07:38:44.404Z,1005.30
2022-09-09T07:39:43.441Z,1005.31
2022-09-09T07:40:43.403Z,1005.29
2022-09-09T07:41:43.469Z,1005.24
2022-09-09T07:42:43.369Z,1005.30
2022-09-09T07:43:43.368Z,1005.27
2022-09-09T07:44:43.362Z,1005.30
2022-09-09T07:45:43.364Z,1005.31
2022-09-09T07:46:43.439Z,1005.30
2022-09-09T07:47:43.344Z,1005.31
2022-09-09T07:48:43.293Z,1005.35
2022-09-09T07:49:43.306Z,1005.32
2022-09-09T07:50:43.269Z,1005.38
2022-09-09T07:51:43.315Z,1005.32
2022-09-09T07:52:43.261Z,1005.34
2022-09-09T07:53:43.264Z,1005.38
2022-09-09T07:54:43.249Z,1005.36
2022-09-09T07:55:43.241Z,1005.37
2022-09-09T07:56:43.251Z,1005.37
2022-09-09T07:57:43.207Z,1005.38
2022-09-09T07:58:43.201Z,1005.37
2022-09-09T07:59:43.195Z,1005.34
2022-09-09T08:00:43.185Z,1005.41
2022-09-09T08:01:43.245Z,1005.41
2022-09-09T08:02:43.209Z,1005.41
2022-09-09T08:03:43.144Z,1005.41
2022-09-09T08:04:43.118Z,1005.43
2022-09-09T08:05:43.114Z,1005.40
2022-09-09T08:06:43.159Z,1005.36
2022-09-09T08:07:43.100Z,1005.35
2022-09-09T08:08:43.078Z,1005.39
2022-09-09T08:09:43.120Z,1005.39
2022-09-09T08:10:43.061Z,1005.38
2022-09-09T08:11:43.092Z,1005.36
2022-09-09T08:13:01.346Z,1005.36
2022-09-09T08:13:44.058Z,1005.32
2022-09-09T08:14:43.022Z,1005.39
2022-09-09T08:15:43.084Z,1005.39
2022-09-09T08:16:43.025Z,1005.39
2022-09-09T08:17:42.986Z,1005.42
2022-09-09T08:18:42.967Z,1005.42
2022-09-09T08:19:42.944Z,1005.40
2022-09-09T08:20:42.981Z,1005.40
2022-09-09T08:21:43.017Z,1005.39
2022-09-09T08:22:42.939Z,1005.43
2022-09-09T08:23:42.927Z,1005.40
2022-09-09T08:24:42.939Z,1005.41
2022-09-09T08:25:42.920Z,1005.44
2022-09-09T08:26:42.945Z,1005.50
2022-09-09T08:27:42.913Z,1005.47
2022-09-09T08:28:42.852Z,1005.47
2022-09-09T08:29:42.853Z,1005.49
2022-09-09T08:30:42.861Z,1005.54
2022-09-09T08:31:42.890Z,1005.57
2022-09-09T08:32:45.554Z,1005.51
2022-09-09T08:33:42.827Z,1005.51
2022-09-09T08:34:46.726Z,1005.54
2022-09-09T08:35:42.797Z,1005.59
2022-09-09T08:36:42.832Z,1005.59
2022-09-09T08:37:42.771Z,1005.52
2022-09-09T08:38:42.755Z,1005.53
2022-09-09T08:39:42.771Z,1005.49
2022-09-09T08:40:42.758Z,1005.51
2022-09-09T08:41:42.732Z,1005.45
2022-09-09T08:42:42.744Z,1005.44
2022-09-09T08:43:42.709Z,1005.43
2022-09-09T08:44:46.860Z,1005.40
2022-09-09T08:45:43.688Z,1005.44
2022-09-09T08:46:42.776Z,1005.43
2022-09-09T08:47:42.681Z,1005.48
2022-09-09T08:48:42.674Z,1005.47
2022-09-09T08:49:42.640Z,1005.47
2022-09-09T08:50:42.659Z,1005.46
2022-09-09T08:51:42.673Z,1005.45
2022-09-09T08:52:42.591Z,1005.45
2022-09-09T08:53:42.597Z,1005.40
2022-09-09T08:54:52.220Z,1005.45
2022-09-09T08:55:43.612Z,1005.44
2022-09-09T08:56:42.607Z,1005.47
2022-09-09T08:57:42.562Z,1005.45
2022-09-09T08:58:42.531Z,1005.46
2022-09-09T08:59:42.531Z,1005.53
2022-09-09T09:00:42.509Z,1005.49
2022-09-09T09:01:42.584Z,1005.46
2022-09-09T09:02:42.480Z,1005.47
2022-09-09T09:03:42.462Z,1005.47
2022-09-09T09:04:42.572Z,1005.42
2022-09-09T09:05:42.485Z,1005.40
2022-09-09T09:06:42.478Z,1005.42
2022-09-09T09:07:42.477Z,1005.44
2022-09-09T09:08:42.417Z,1005.47
2022-09-09T09:09:42.450Z,1005.42
2022-09-09T09:10:43.038Z,1005.47
2022-09-09T09:11:42.397Z,1005.40
2022-09-09T09:12:42.435Z,1005.40
2022-09-09T09:13:44.002Z,1005.43
2022-09-09T09:14:44.574Z,1005.42
2022-09-09T09:15:42.390Z,1005.39
2022-09-09T09:16:42.344Z,1005.36
2022-09-09T09:17:42.369Z,1005.35
2022-09-09T09:18:42.348Z,1005.36
2022-09-09T09:19:42.329Z,1005.36
2022-09-09T09:20:42.304Z,1005.39
2022-09-09T09:21:42.291Z,1005.43
2022-09-09T09:22:42.308Z,1005.43
2022-09-09T09:23:42.300Z,1005.41
2022-09-09T09:24:42.251Z,1005.40
2022-09-09T09:25:42.250Z,1005.39
2022-09-09T09:26:42.271Z,1005.35
2022-09-09T09:27:42.260Z,1005.35
2022-09-09T09:28:42.209Z,1005.41
2022-09-09T09:30:04.148Z,1005.40
2022-09-09T09:30:43.236Z,1005.36
2022-09-09T09:31:42.211Z,1005.28
2022-09-09T09:32:42.196Z,1005.32
2022-09-09T09:33:42.155Z,1005.32
2022-09-09T09:34:42.165Z,1005.29
2022-09-09T09:35:44.428Z,1005.33
2022-09-09T09:36:42.173Z,1005.36
2022-09-09T09:40:43.070Z,1005.42
2022-09-09T09:41:42.109Z,1005.47
2022-09-09T09:42:42.065Z,1005.41
2022-09-09T09:43:42.062Z,1005.40
2022-09-09T09:44:42.052Z,1005.49
2022-09-09T09:45:46.742Z,1005.50
2022-09-09T09:46:43.077Z,1005.48
2022-09-09T09:47:42.028Z,1005.43
2022-09-09T09:48:42.019Z,1005.52
2022-09-09T09:49:42.009Z,1005.47
2022-09-09T09:50:41.982Z,1005.49
2022-09-09T09:51:42.007Z,1005.54
2022-09-09T09:52:41.965Z,1005.39
2022-09-09T09:53:41.967Z,1005.41
2022-09-09T09:54:41.958Z,1005.47
2022-09-09T09:55:41.935Z,1005.47
2022-09-09T09:56:41.972Z,1005.48
2022-09-09T09:57:41.932Z,1005.42
2022-09-09T09:58:41.934Z,1005.37
2022-09-09T09:59:41.984Z,1005.36
2022-09-09T10:00:41.900Z,1005.33
2022-09-09T10:01:41.958Z,1005.50
2022-09-09T10:02:41.837Z,1005.33
2022-09-09T10:03:41.823Z,1005.43
2022-09-09T10:04:41.900Z,1005.44
2022-09-09T10:05:41.819Z,1005.39
2022-09-09T10:06:41.820Z,1005.44
2022-09-09T10:07:41.860Z,1005.40
2022-09-09T10:08:41.804Z,1005.40
2022-09-09T10:09:41.769Z,1005.36
2022-09-09T10:10:45.030Z,1005.38
2022-09-09T10:11:42.831Z,1005.39
2022-09-09T10:12:41.774Z,1005.42
2022-09-09T10:13:41.741Z,1005.32
2022-09-09T10:14:41.749Z,1005.37
2022-09-09T10:15:41.811Z,1005.46
2022-09-09T10:16:41.715Z,1005.40
2022-09-09T10:17:41.764Z,1005.41
2022-09-09T10:18:41.703Z,1005.42
2022-09-09T10:19:41.695Z,1005.43
2022-09-09T10:20:41.665Z,1005.46
2022-09-09T10:21:41.665Z,1005.51
2022-09-09T10:22:41.694Z,1005.54
2022-09-09T10:23:41.633Z,1005.54
2022-09-09T10:24:41.681Z,1005.51
2022-09-09T10:25:41.621Z,1005.51
2022-09-09T10:26:41.616Z,1005.53
2022-09-09T10:27:41.635Z,1005.48
2022-09-09T10:28:41.614Z,1005.48
2022-09-09T10:29:41.613Z,1005.51
2022-09-09T10:30:41.591Z,1005.47
2022-09-09T10:31:41.556Z,1005.44
2022-09-09T10:32:41.586Z,1005.42
2022-09-09T10:33:41.546Z,1005.40
2022-09-09T10:34:41.551Z,1005.43
2022-09-09T10:35:41.524Z,1005.43
2022-09-09T10:36:41.515Z,1005.44
2022-09-09T10:37:41.534Z,1005.49
2022-09-09T10:38:41.478Z,1005.51
2022-09-09T10:39:43.146Z,1005.56
2022-09-09T10:40:41.473Z,1005.56
2022-09-09T10:41:41.445Z,1005.53
2022-09-09T10:42:41.495Z,1005.58
2022-09-09T10:43:41.441Z,1005.52
2022-09-09T10:44:41.414Z,1005.50
2022-09-09T10:45:41.412Z,1005.53
2022-09-09T10:46:41.462Z,1005.64
2022-09-09T10:47:41.423Z,1005.58
2022-09-09T10:48:41.377Z,1005.59
2022-09-09T10:49:41.368Z,1005.71
2022-09-09T10:51:42.502Z,1005.64
2022-09-09T10:52:41.600Z,1005.67
2022-09-09T10:53:41.321Z,1005.58
2022-09-09T10:54:41.319Z,1005.70
2022-09-09T10:55:41.309Z,1005.67
2022-09-09T10:56:41.305Z,1005.67
2022-09-09T10:57:41.302Z,1005.73
2022-09-09T10:58:41.250Z,1005.71
2022-09-09T10:59:41.251Z,1005.77
2022-09-09T11:00:41.236Z,1005.76
2022-09-09T11:01:41.284Z,1005.78
2022-09-09T11:02:41.292Z,1005.80
2022-09-09T11:03:41.245Z,1005.77
2022-09-09T11:04:41.198Z,1005.83
2022-09-09T11:05:41.188Z,1005.78
2022-09-09T11:06:41.220Z,1005.79
2022-09-09T11:07:41.226Z,1005.82
2022-09-09T11:08:41.172Z,1005.84
2022-09-09T11:09:41.153Z,1005.85
2022-09-09T11:10:41.144Z,1005.87
2022-09-09T11:11:41.119Z,1005.83
2022-09-09T11:12:41.159Z,1005.93
2022-09-09T11:13:41.110Z,1005.92
2022-09-09T11:14:41.098Z,1005.88
2022-09-09T11:15:41.085Z,1005.90
2022-09-09T11:16:41.116Z,1005.88
2022-09-09T11:17:41.101Z,1005.87
2022-09-09T11:18:41.052Z,1005.83
2022-09-09T11:19:41.039Z,1005.85
2022-09-09T11:20:41.034Z,1005.80
2022-09-09T11:21:41.009Z,1005.79
2022-09-09T11:22:41.053Z,1005.73
2022-09-09T11:23:42.093Z,1005.78
2022-09-09T11:24:40.978Z,1005.81
2022-09-09T11:25:40.982Z,1005.81
2022-09-09T11:26:40.982Z,1005.80
2022-09-09T11:27:41.034Z,1005.76
2022-09-09T11:28:40.944Z,1005.85
2022-09-09T11:29:40.906Z,1005.80
2022-09-09T11:30:57.422Z,1005.85
2022-09-09T11:31:41.907Z,1005.86
2022-09-09T11:32:40.921Z,1005.84
2022-09-09T11:33:40.916Z,1005.81
2022-09-09T11:34:40.885Z,1005.81
2022-09-09T11:35:40.860Z,1005.86
2022-09-09T11:36:40.833Z,1005.81
2022-09-09T11:37:40.852Z,1005.87
2022-09-09T11:38:40.871Z,1005.75
2022-09-09T11:39:40.898Z,1005.79
2022-09-09T11:40:40.820Z,1005.80
2022-09-09T11:41:40.784Z,1005.75
2022-09-09T11:42:40.795Z,1005.73
2022-09-09T11:43:40.794Z,1005.83
2022-09-09T11:44:40.782Z,1005.71
2022-09-09T11:45:40.798Z,1005.62
2022-09-09T11:46:40.833Z,1005.66
2022-09-09T11:47:40.749Z,1005.66
2022-09-09T11:48:40.797Z,1005.67
2022-09-09T11:49:40.720Z,1005.66
2022-09-09T11:50:40.707Z,1005.65
2022-09-09T11:51:40.717Z,1005.64
2022-09-09T11:52:40.675Z,1005.63
2022-09-09T11:53:40.702Z,1005.70
2022-09-09T11:54:40.669Z,1005.70
2022-09-09T11:55:40.653Z,1005.66
2022-09-09T11:56:40.624Z,1005.68
2022-09-09T11:57:40.635Z,1005.69
2022-09-09T11:58:40.652Z,1005.72
2022-09-09T11:59:40.602Z,1005.77
2022-09-09T12:00:40.579Z,1005.77
2022-09-09T12:01:40.575Z,1005.67
2022-09-09T12:02:40.602Z,1005.69
2022-09-09T12:03:40.601Z,1005.61
2022-09-09T12:04:40.634Z,1005.70
2022-09-09T12:05:40.541Z,1005.69
2022-09-09T12:06:40.545Z,1005.65
2022-09-09T12:07:40.527Z,1005.63
2022-09-09T12:08:40.569Z,1005.61
2022-09-09T12:09:40.503Z,1005.57